CEB724 RPLL-RPMY
Flight info
| Callsign | CEB724 |
|---|---|
| Flight time | N/A |
| Altitude | 37000 |
| Route | DCT IPATA W25 BATAY W8 MCT W6A SAGOL SAGOL4A |
| Aircraft | A20N/M-SDE2E3FGHIRWXY/LB1 |
Departure
| Time | 2026-05-06 13:40 |
|---|---|
| Airport | Ninoy Aquino International Airport (RPLL) |
Arrival
| Time | N/A |
|---|---|
| Airport | Laguindingan International Airport (RPMY) |
| Time | Latitude | Longitude | Altitude | Speed | Heading |
|---|---|---|---|---|---|
| 2026-05-06 13:20 | 14.52099 | 121.01095 | 82 ft | 0 kts | 44° |
| 2026-05-06 13:30 | 14.52098 | 121.01095 | 82 ft | 0 kts | 44° |
| 2026-05-06 13:30 | 14.52090 | 121.01086 | 82 ft | 2 kts | 44° |
| 2026-05-06 13:30 | 14.52079 | 121.01075 | 82 ft | 2 kts | 44° |
| 2026-05-06 13:30 | 14.52068 | 121.01064 | 82 ft | 2 kts | 44° |
| 2026-05-06 13:31 | 14.52057 | 121.01054 | 82 ft | 2 kts | 44° |
| 2026-05-06 13:31 | 14.52047 | 121.01043 | 82 ft | 2 kts | 44° |
| 2026-05-06 13:31 | 14.52040 | 121.01036 | 82 ft | 2 kts | 45° |
| 2026-05-06 13:31 | 14.52027 | 121.01028 | 82 ft | 2 kts | 15° |
| 2026-05-06 13:32 | 14.52012 | 121.01026 | 82 ft | 2 kts | 353° |
| 2026-05-06 13:32 | 14.51998 | 121.01030 | 82 ft | 2 kts | 329° |
| 2026-05-06 13:32 | 14.51990 | 121.01035 | 82 ft | 1 kts | 315° |
| 2026-05-06 13:32 | 14.51986 | 121.01041 | 82 ft | 0 kts | 314° |
| 2026-05-06 13:34 | 14.51986 | 121.01040 | 82 ft | 0 kts | 314° |
| 2026-05-06 13:34 | 14.51992 | 121.01035 | 82 ft | 1 kts | 315° |
| 2026-05-06 13:34 | 14.52006 | 121.01021 | 82 ft | 3 kts | 316° |
| 2026-05-06 13:35 | 14.52026 | 121.01000 | 82 ft | 4 kts | 314° |
| 2026-05-06 13:35 | 14.52053 | 121.00973 | 82 ft | 6 kts | 315° |
| 2026-05-06 13:35 | 14.52086 | 121.00938 | 82 ft | 7 kts | 315° |
| 2026-05-06 13:35 | 14.52125 | 121.00898 | 82 ft | 8 kts | 315° |
| 2026-05-06 13:36 | 14.52172 | 121.00850 | 82 ft | 10 kts | 315° |
| 2026-05-06 13:36 | 14.52224 | 121.00794 | 82 ft | 11 kts | 315° |
| 2026-05-06 13:36 | 14.52281 | 121.00736 | 82 ft | 11 kts | 315° |
| 2026-05-06 13:36 | 14.52342 | 121.00674 | 82 ft | 12 kts | 314° |
| 2026-05-06 13:37 | 14.52406 | 121.00607 | 82 ft | 13 kts | 314° |
| 2026-05-06 13:37 | 14.52470 | 121.00542 | 82 ft | 11 kts | 316° |
| 2026-05-06 13:37 | 14.52486 | 121.00489 | 82 ft | 8 kts | 246° |
| 2026-05-06 13:37 | 14.52444 | 121.00441 | 82 ft | 9 kts | 224° |
| 2026-05-06 13:38 | 14.52389 | 121.00404 | 82 ft | 9 kts | 185° |
| 2026-05-06 13:38 | 14.52334 | 121.00436 | 82 ft | 2 kts | 135° |
| 2026-05-06 13:38 | 14.52333 | 121.00436 | 82 ft | 0 kts | 135° |
| 2026-05-06 13:39 | 14.52240 | 121.00533 | 82 ft | 54 kts | 134° |
| 2026-05-06 13:39 | 14.51793 | 121.00999 | 82 ft | 125 kts | 136° |
| 2026-05-06 13:39 | 14.51070 | 121.01771 | 269 ft | 162 kts | 132° |
| 2026-05-06 13:40 | 14.50277 | 121.02629 | 862 ft | 169 kts | 132° |
| 2026-05-06 13:40 | 14.49441 | 121.03494 | 1535 ft | 175 kts | 132° |
| 2026-05-06 13:40 | 14.48572 | 121.04376 | 2144 ft | 180 kts | 132° |
| 2026-05-06 13:40 | 14.47645 | 121.05324 | 2538 ft | 196 kts | 132° |